createdAt,value
2017-02-16T00:00:50.499Z,0
2017-02-16T00:01:50.431Z,0
2017-02-16T00:02:50.360Z,0
2017-02-16T00:03:50.299Z,0
2017-02-16T00:04:50.238Z,0
2017-02-16T00:05:50.215Z,0
2017-02-16T00:06:50.100Z,0
2017-02-16T00:07:50.090Z,0
2017-02-16T00:08:49.986Z,0
2017-02-16T00:09:49.534Z,0
2017-02-16T00:10:49.856Z,0
2017-02-16T00:11:49.807Z,0
2017-02-16T00:12:49.740Z,0
2017-02-16T00:13:49.660Z,0
2017-02-16T00:14:49.611Z,0
2017-02-16T00:15:49.534Z,0
2017-02-16T00:16:49.485Z,0
2017-02-16T00:17:49.419Z,0
2017-02-16T00:18:49.356Z,0
2017-02-16T00:19:49.294Z,0
2017-02-16T00:20:49.229Z,0
2017-02-16T00:21:49.167Z,0
2017-02-16T00:22:49.105Z,0
2017-02-16T00:23:49.035Z,0
2017-02-16T00:24:48.972Z,0
2017-02-16T00:25:48.936Z,0
2017-02-16T00:26:48.844Z,0
2017-02-16T00:27:48.807Z,0
2017-02-16T00:28:48.730Z,0
2017-02-16T00:29:48.675Z,0
2017-02-16T00:30:48.606Z,0
2017-02-16T00:31:48.551Z,0
2017-02-16T00:32:48.472Z,0
2017-02-16T00:33:48.420Z,0
2017-02-16T00:34:48.355Z,0
2017-02-16T00:35:48.293Z,0
2017-02-16T00:36:48.229Z,0
2017-02-16T00:37:48.161Z,0
2017-02-16T00:38:48.097Z,0
2017-02-16T00:39:48.036Z,0
2017-02-16T00:40:48.001Z,0
2017-02-16T00:41:47.536Z,0
2017-02-16T00:42:47.840Z,0
2017-02-16T00:43:47.778Z,0
2017-02-16T00:44:47.770Z,0
2017-02-16T00:45:47.673Z,0
2017-02-16T00:46:47.601Z,0
2017-02-16T00:47:47.527Z,0
2017-02-16T00:48:47.509Z,0
2017-02-16T00:49:47.036Z,0
2017-02-16T00:50:47.352Z,0
2017-02-16T00:51:47.288Z,0
2017-02-16T00:52:47.226Z,0
2017-02-16T00:53:47.155Z,0
2017-02-16T00:54:47.102Z,0
2017-02-16T00:55:47.031Z,0
2017-02-16T00:56:46.973Z,0
2017-02-16T00:57:46.921Z,0
2017-02-16T00:58:46.834Z,0
2017-02-16T00:59:46.787Z,0
2017-02-16T01:01:18.328Z,0
2017-02-16T01:02:18.237Z,0
2017-02-16T01:03:18.188Z,0
2017-02-16T01:04:17.739Z,0
2017-02-16T01:05:18.042Z,0
2017-02-16T01:06:18.385Z,0
2017-02-16T01:07:17.931Z,0
2017-02-16T01:08:17.469Z,0
2017-02-16T01:09:17.446Z,0
2017-02-16T01:10:17.741Z,0
2017-02-16T01:11:17.818Z,0
2017-02-16T01:12:17.604Z,0
2017-02-16T01:13:17.165Z,0
2017-02-16T01:14:17.115Z,0
2017-02-16T01:15:16.690Z,0
2017-02-16T01:16:17.227Z,0
2017-02-16T01:17:16.914Z,0
2017-02-16T01:18:16.847Z,0
2017-02-16T01:19:16.777Z,0
2017-02-16T01:20:17.120Z,0
2017-02-16T01:21:16.673Z,0
2017-02-16T01:22:16.599Z,0
2017-02-16T01:23:16.922Z,0
2017-02-16T01:24:16.866Z,0
2017-02-16T01:25:16.787Z,0
2017-02-16T01:26:16.718Z,0
2017-02-16T01:27:16.660Z,0
2017-02-16T01:28:16.215Z,0
2017-02-16T01:29:16.545Z,0
2017-02-16T01:30:16.483Z,0
2017-02-16T01:31:16.443Z,0
2017-02-16T01:32:16.604Z,0
2017-02-16T01:33:16.288Z,0
2017-02-16T01:34:15.845Z,0
2017-02-16T01:35:15.770Z,0
2017-02-16T01:36:16.099Z,0
2017-02-16T01:37:16.297Z,0
2017-02-16T01:38:15.996Z,0
2017-02-16T01:39:15.521Z,0
2017-02-16T01:40:15.862Z,0
2017-02-16T01:41:15.800Z,0
2017-02-16T01:42:15.632Z,0
2017-02-16T01:43:15.295Z,0
2017-02-16T01:44:14.858Z,0
2017-02-16T01:45:15.543Z,0
2017-02-16T01:46:15.084Z,0
2017-02-16T01:47:15.023Z,0
2017-02-16T01:48:15.351Z,0
2017-02-16T01:49:15.271Z,0
2017-02-16T01:50:14.825Z,0
2017-02-16T01:51:15.198Z,0
2017-02-16T01:52:15.082Z,0
2017-02-16T01:53:14.640Z,0
2017-02-16T01:54:14.591Z,0
2017-02-16T01:55:14.522Z,0
2017-02-16T01:56:14.460Z,0
2017-02-16T01:57:14.769Z,0
2017-02-16T01:58:14.322Z,0
2017-02-16T01:59:14.656Z,4
2017-02-16T02:00:14.581Z,4
2017-02-16T02:01:14.543Z,4
2017-02-16T02:02:14.069Z,4
2017-02-16T02:03:14.393Z,4
2017-02-16T02:04:14.333Z,4
2017-02-16T02:05:14.567Z,0
2017-02-16T02:06:14.206Z,0
2017-02-16T02:07:14.162Z,0
2017-02-16T02:08:14.076Z,0
2017-02-16T02:09:14.055Z,0
2017-02-16T02:10:14.203Z,0
2017-02-16T02:11:13.935Z,0
2017-02-16T02:12:13.844Z,0
2017-02-16T02:13:13.772Z,0
2017-02-16T02:14:13.723Z,0
2017-02-16T02:15:13.646Z,0
2017-02-16T02:16:13.621Z,0
2017-02-16T02:17:13.518Z,0
2017-02-16T02:18:13.084Z,0
2017-02-16T02:19:13.423Z,0
2017-02-16T02:20:12.947Z,0
2017-02-16T02:21:12.874Z,0
2017-02-16T02:22:13.196Z,0
2017-02-16T02:23:13.145Z,0
2017-02-16T02:24:13.094Z,0
2017-02-16T02:25:12.635Z,0
2017-02-16T02:26:12.943Z,0
2017-02-16T02:27:12.493Z,0
2017-02-16T02:28:12.815Z,0
2017-02-16T02:29:12.763Z,0
2017-02-16T02:30:12.350Z,0
2017-02-16T02:31:12.638Z,0
2017-02-16T02:32:12.574Z,0
2017-02-16T02:33:11.764Z,0
2017-02-16T02:34:12.453Z,0
2017-02-16T02:35:12.379Z,0
2017-02-16T02:36:12.330Z,0
2017-02-16T02:37:12.250Z,0
2017-02-16T02:38:12.202Z,0
2017-02-16T02:39:12.153Z,0
2017-02-16T02:40:12.082Z,0
2017-02-16T02:41:12.012Z,0
2017-02-16T02:42:11.946Z,0
2017-02-16T02:43:11.873Z,0
2017-02-16T02:44:11.809Z,0
2017-02-16T02:45:11.747Z,0
2017-02-16T02:46:11.691Z,0
2017-02-16T02:47:11.638Z,0
2017-02-16T02:48:11.567Z,0
2017-02-16T02:49:11.505Z,0
2017-02-16T02:50:11.453Z,0
2017-02-16T02:51:11.367Z,0
2017-02-16T02:52:11.311Z,0
2017-02-16T02:53:11.247Z,0
2017-02-16T02:54:11.180Z,0
2017-02-16T02:55:10.752Z,0
2017-02-16T02:56:11.068Z,0
2017-02-16T02:57:10.603Z,0
2017-02-16T02:58:10.541Z,0
2017-02-16T02:59:10.480Z,0
2017-02-16T03:00:10.044Z,0
2017-02-16T03:01:10.750Z,0
2017-02-16T03:02:10.679Z,0
2017-02-16T03:03:10.631Z,0
2017-02-16T03:04:10.175Z,0
2017-02-16T03:05:10.116Z,0
2017-02-16T03:06:09.697Z,0
2017-02-16T03:07:10.375Z,0
2017-02-16T03:08:10.321Z,0
2017-02-16T03:09:10.233Z,0
2017-02-16T03:10:10.181Z,0
2017-02-16T03:11:09.732Z,0
2017-02-16T03:12:09.660Z,0
2017-02-16T03:13:09.603Z,0
2017-02-16T03:14:09.931Z,0
2017-02-16T03:15:09.872Z,0
2017-02-16T03:16:09.806Z,0
2017-02-16T03:17:09.356Z,0
2017-02-16T03:18:09.669Z,0
2017-02-16T03:19:09.621Z,0
2017-02-16T03:20:09.555Z,0
2017-02-16T03:21:09.483Z,0
2017-02-16T03:22:09.423Z,0
2017-02-16T03:23:09.368Z,0
2017-02-16T03:24:09.318Z,0
2017-02-16T03:25:08.862Z,0
2017-02-16T03:26:08.797Z,0
2017-02-16T03:27:09.102Z,0
2017-02-16T03:28:09.042Z,0
2017-02-16T03:29:08.984Z,0
2017-02-16T03:30:08.960Z,0
2017-02-16T03:31:08.849Z,0
2017-02-16T03:32:08.791Z,0
2017-02-16T03:33:08.727Z,0
2017-02-16T03:34:08.694Z,0
2017-02-16T03:35:08.607Z,0
2017-02-16T03:36:08.551Z,0
2017-02-16T03:37:08.093Z,0
2017-02-16T03:38:08.474Z,0
2017-02-16T03:39:08.341Z,0
2017-02-16T03:40:07.909Z,0
2017-02-16T03:41:08.224Z,0
2017-02-16T03:42:07.781Z,0
2017-02-16T03:43:08.104Z,0
2017-02-16T03:44:08.035Z,0
2017-02-16T03:45:07.942Z,0
2017-02-16T03:46:07.921Z,0
2017-02-16T03:47:07.847Z,0
2017-02-16T03:48:07.784Z,0
2017-02-16T03:49:07.738Z,0
2017-02-16T03:50:07.265Z,0
2017-02-16T03:51:07.597Z,0
2017-02-16T03:52:07.525Z,0
2017-02-16T03:53:07.484Z,0
2017-02-16T03:54:07.411Z,0
2017-02-16T03:55:07.358Z,0
2017-02-16T03:56:07.284Z,0
2017-02-16T03:57:07.231Z,0
2017-02-16T03:58:07.165Z,0
2017-02-16T03:59:07.090Z,0
2017-02-16T04:00:07.025Z,0
2017-02-16T04:01:06.964Z,0
2017-02-16T04:02:06.910Z,0
2017-02-16T04:03:06.863Z,0
2017-02-16T04:04:06.792Z,0
2017-02-16T04:05:06.742Z,0
2017-02-16T04:06:06.660Z,0
2017-02-16T04:07:06.584Z,0
2017-02-16T04:08:06.534Z,0
2017-02-16T04:09:06.483Z,0
2017-02-16T04:10:06.395Z,0
2017-02-16T04:11:06.362Z,0
2017-02-16T04:12:06.285Z,0
2017-02-16T04:13:06.220Z,0
2017-02-16T04:14:06.171Z,0
2017-02-16T04:15:05.725Z,0
2017-02-16T04:16:06.028Z,0
2017-02-16T04:17:05.583Z,0
2017-02-16T04:18:05.520Z,0
2017-02-16T04:19:05.861Z,0
2017-02-16T04:20:05.814Z,0
2017-02-16T04:21:05.710Z,0
2017-02-16T04:22:05.651Z,0
2017-02-16T04:23:05.587Z,0
2017-02-16T04:24:05.534Z,0
2017-02-16T04:25:05.104Z,0
2017-02-16T04:26:05.399Z,0
2017-02-16T04:27:05.339Z,0
2017-02-16T04:28:05.283Z,0
2017-02-16T04:29:05.217Z,0
2017-02-16T04:30:05.190Z,0
2017-02-16T04:31:04.697Z,0
2017-02-16T04:32:05.024Z,0
2017-02-16T04:33:04.984Z,0
2017-02-16T04:34:04.906Z,0
2017-02-16T04:35:04.837Z,0
2017-02-16T04:36:04.772Z,0
2017-02-16T04:37:04.724Z,0
2017-02-16T04:38:04.662Z,0
2017-02-16T04:39:04.601Z,0
2017-02-16T04:40:04.529Z,0
2017-02-16T04:41:04.474Z,0
2017-02-16T04:42:04.406Z,0
2017-02-16T04:43:04.332Z,0
2017-02-16T04:44:04.286Z,0
2017-02-16T04:45:04.213Z,0
2017-02-16T04:46:04.167Z,0
2017-02-16T04:47:04.100Z,0
2017-02-16T04:48:04.037Z,0
2017-02-16T04:49:03.981Z,0
2017-02-16T04:50:03.907Z,0
2017-02-16T04:51:03.849Z,0
2017-02-16T04:52:03.779Z,0
2017-02-16T04:53:03.725Z,0
2017-02-16T04:54:03.649Z,0
2017-02-16T04:55:03.591Z,0
2017-02-16T04:56:03.523Z,0
2017-02-16T04:57:03.465Z,0
2017-02-16T04:58:03.402Z,0
2017-02-16T04:59:03.341Z,0
2017-02-16T05:00:03.339Z,0
2017-02-16T05:01:03.209Z,0
2017-02-16T05:02:03.155Z,0
2017-02-16T05:03:03.085Z,0
2017-02-16T05:04:03.033Z,0
2017-02-16T05:05:02.998Z,0
2017-02-16T05:06:02.905Z,0
2017-02-16T05:07:02.857Z,0
2017-02-16T05:08:02.800Z,0
2017-02-16T05:09:02.709Z,0
2017-02-16T05:10:02.671Z,0
2017-02-16T05:11:02.600Z,0
2017-02-16T05:12:02.533Z,0
2017-02-16T05:13:02.459Z,0
2017-02-16T05:14:02.403Z,0
2017-02-16T05:15:01.960Z,0
2017-02-16T05:16:02.273Z,0
2017-02-16T05:17:02.219Z,0
2017-02-16T05:18:01.778Z,0
2017-02-16T05:19:02.105Z,0
2017-02-16T05:20:02.026Z,0
2017-02-16T05:21:01.960Z,0
2017-02-16T05:22:01.930Z,0
2017-02-16T05:23:01.841Z,0
2017-02-16T05:24:01.775Z,0
2017-02-16T05:25:01.717Z,0
2017-02-16T05:26:01.662Z,0
2017-02-16T05:27:01.586Z,0
2017-02-16T05:28:01.521Z,0
2017-02-16T05:29:01.453Z,0
2017-02-16T05:30:01.399Z,0
2017-02-16T05:31:01.372Z,0
2017-02-16T05:32:01.276Z,0
2017-02-16T05:33:01.211Z,0
2017-02-16T05:34:01.185Z,0
2017-02-16T05:35:01.082Z,0
2017-02-16T05:36:01.017Z,0
2017-02-16T05:37:00.978Z,0
2017-02-16T05:38:00.953Z,0
2017-02-16T05:39:00.848Z,0
2017-02-16T05:40:00.795Z,0
2017-02-16T05:41:00.725Z,0
2017-02-16T05:42:00.650Z,0
2017-02-16T05:43:00.616Z,0
2017-02-16T05:44:00.515Z,0
2017-02-16T05:45:00.070Z,0
2017-02-16T05:46:00.414Z,0
2017-02-16T05:47:00.358Z,0
2017-02-16T05:47:59.893Z,0
2017-02-16T05:48:59.825Z,0
2017-02-16T05:49:59.780Z,0
2017-02-16T05:51:00.079Z,0
2017-02-16T05:52:00.014Z,0
2017-02-16T05:52:59.590Z,0
2017-02-16T05:53:59.891Z,0
2017-02-16T05:54:59.838Z,0
2017-02-16T05:55:59.867Z,0
2017-02-16T05:56:59.732Z,0
2017-02-16T05:57:59.640Z,0
2017-02-16T05:58:59.578Z,0
2017-02-16T05:59:59.514Z,0
2017-02-16T06:00:59.460Z,0
2017-02-16T06:01:59.408Z,0
2017-02-16T06:02:59.338Z,0
2017-02-16T06:03:59.265Z,4
2017-02-16T06:04:59.227Z,4
2017-02-16T06:05:59.143Z,4
2017-02-16T06:06:59.100Z,4
2017-02-16T06:07:59.015Z,4
2017-02-16T06:08:58.955Z,4
2017-02-16T06:09:58.894Z,4
2017-02-16T06:10:58.821Z,4
2017-02-16T06:11:58.796Z,4
2017-02-16T06:12:58.699Z,4
2017-02-16T06:13:58.634Z,4
2017-02-16T06:14:58.569Z,4
2017-02-16T06:15:58.511Z,4
2017-02-16T06:16:58.480Z,4
2017-02-16T06:17:57.997Z,4
2017-02-16T06:18:58.318Z,4
2017-02-16T06:19:58.287Z,4
2017-02-16T06:20:57.823Z,4
2017-02-16T06:21:57.745Z,4
2017-02-16T06:22:58.068Z,4
2017-02-16T06:23:57.618Z,4
2017-02-16T06:24:57.943Z,4
2017-02-16T06:25:57.901Z,4
2017-02-16T06:26:57.815Z,4
2017-02-16T06:27:57.761Z,4
2017-02-16T06:28:57.698Z,4
2017-02-16T06:29:57.638Z,4
2017-02-16T06:30:57.635Z,4
2017-02-16T06:31:57.517Z,4
2017-02-16T06:32:57.438Z,4
2017-02-16T06:33:57.382Z,4
2017-02-16T06:34:57.315Z,4
2017-02-16T06:35:57.551Z,4
2017-02-16T06:36:57.188Z,4
2017-02-16T06:37:57.137Z,4
2017-02-16T06:38:57.069Z,4
2017-02-16T06:39:57.011Z,8
2017-02-16T06:40:57.222Z,8
2017-02-16T06:41:56.891Z,8
2017-02-16T06:42:56.809Z,8
2017-02-16T06:43:56.747Z,8
2017-02-16T06:44:56.688Z,8
2017-02-16T06:45:56.254Z,8
2017-02-16T06:46:56.603Z,4
2017-02-16T06:47:56.519Z,4
2017-02-16T06:48:56.056Z,4
2017-02-16T06:49:55.987Z,4
2017-02-16T06:50:56.318Z,8
2017-02-16T06:51:56.253Z,8
2017-02-16T06:52:56.181Z,8
2017-02-16T06:53:56.168Z,8
2017-02-16T06:54:56.066Z,8
2017-02-16T06:55:55.995Z,8
2017-02-16T06:56:55.938Z,8
2017-02-16T06:57:55.874Z,8
2017-02-16T06:58:55.806Z,8
2017-02-16T06:59:55.752Z,8
2017-02-16T07:00:55.685Z,12
2017-02-16T07:01:55.634Z,12
2017-02-16T07:02:55.552Z,16
2017-02-16T07:03:55.492Z,16
2017-02-16T07:04:55.439Z,16
2017-02-16T07:05:55.382Z,16
2017-02-16T07:06:55.298Z,12
2017-02-16T07:07:55.242Z,16
2017-02-16T07:08:55.199Z,12
2017-02-16T07:09:55.112Z,12
2017-02-16T07:10:55.046Z,16
2017-02-16T07:11:54.985Z,12
2017-02-16T07:12:54.919Z,12
2017-02-16T07:13:54.863Z,12
2017-02-16T07:14:54.795Z,16
2017-02-16T07:15:54.747Z,16
2017-02-16T07:16:54.675Z,12
2017-02-16T07:17:54.621Z,16
2017-02-16T07:18:54.550Z,16
2017-02-16T07:19:54.095Z,16
2017-02-16T07:20:54.429Z,20
2017-02-16T07:21:54.407Z,16
2017-02-16T07:22:54.315Z,16
2017-02-16T07:23:54.236Z,16
2017-02-16T07:24:54.179Z,20
2017-02-16T07:25:54.104Z,20
2017-02-16T07:26:54.056Z,20
2017-02-16T07:27:54.027Z,20
2017-02-16T07:28:53.916Z,20
2017-02-16T07:29:53.851Z,20
2017-02-16T07:30:53.801Z,20
2017-02-16T07:31:53.738Z,24
2017-02-16T07:32:53.662Z,24
2017-02-16T07:33:53.619Z,24
2017-02-16T07:34:53.562Z,24
2017-02-16T07:35:53.487Z,20
2017-02-16T07:36:53.423Z,24
2017-02-16T07:37:52.963Z,24
2017-02-16T07:38:53.288Z,32
2017-02-16T07:39:53.253Z,32
2017-02-16T07:40:53.180Z,24
2017-02-16T07:41:53.114Z,20
2017-02-16T07:42:53.064Z,20
2017-02-16T07:43:52.970Z,20
2017-02-16T07:44:52.930Z,24
2017-02-16T07:45:52.859Z,20
2017-02-16T07:46:52.784Z,24
2017-02-16T07:47:52.729Z,20
2017-02-16T07:48:52.665Z,24
2017-02-16T07:49:52.594Z,24
2017-02-16T07:50:52.530Z,24
2017-02-16T07:51:52.478Z,20
2017-02-16T07:52:52.402Z,24
2017-02-16T07:53:52.343Z,24
2017-02-16T07:54:52.294Z,20
2017-02-16T07:55:52.229Z,20
2017-02-16T07:56:52.163Z,20
2017-02-16T07:57:52.116Z,20
2017-02-16T07:58:51.655Z,20
2017-02-16T07:59:51.971Z,20
2017-02-16T08:00:51.912Z,20
2017-02-16T08:01:51.847Z,20
2017-02-16T08:02:51.810Z,20
2017-02-16T08:03:51.713Z,24
2017-02-16T08:04:51.650Z,20
2017-02-16T08:05:51.597Z,24
2017-02-16T08:06:51.544Z,24
2017-02-16T08:07:51.478Z,24
2017-02-16T08:08:51.404Z,24
2017-02-16T08:09:51.357Z,28
2017-02-16T08:10:51.295Z,28
2017-02-16T08:11:51.214Z,24
2017-02-16T08:12:51.145Z,28
2017-02-16T08:13:51.087Z,32
2017-02-16T08:14:51.305Z,32
2017-02-16T08:15:50.953Z,32
2017-02-16T08:16:50.904Z,28
2017-02-16T08:17:50.836Z,28
2017-02-16T08:18:50.383Z,32
2017-02-16T08:19:50.713Z,24
2017-02-16T08:20:50.927Z,24
2017-02-16T08:21:50.452Z,32
2017-02-16T08:22:50.527Z,32
2017-02-16T08:23:50.074Z,32
2017-02-16T08:24:50.006Z,32
2017-02-16T08:25:50.624Z,28
2017-02-16T08:26:50.372Z,28
2017-02-16T08:27:49.739Z,28
2017-02-16T08:28:51.099Z,28
2017-02-16T08:29:50.096Z,28
2017-02-16T08:30:50.279Z,28
2017-02-16T08:31:49.946Z,28
2017-02-16T08:32:49.909Z,28
2017-02-16T08:33:49.832Z,28
2017-02-16T08:34:49.381Z,28
2017-02-16T08:35:49.709Z,28
2017-02-16T08:36:49.657Z,28
2017-02-16T08:37:49.571Z,28
2017-02-16T08:38:49.527Z,28
2017-02-16T08:39:49.441Z,28
2017-02-16T08:40:49.389Z,28
2017-02-16T08:41:49.317Z,28
2017-02-16T08:42:48.880Z,28
2017-02-16T08:43:49.221Z,28
2017-02-16T08:44:49.128Z,24
2017-02-16T08:45:48.696Z,28
2017-02-16T08:46:48.691Z,28
2017-02-16T08:47:48.553Z,28
2017-02-16T08:48:49.091Z,28
2017-02-16T08:49:48.937Z,28
2017-02-16T08:50:48.930Z,28
2017-02-16T08:51:48.478Z,28
2017-02-16T08:52:48.575Z,28
2017-02-16T08:53:48.720Z,28
2017-02-16T08:54:48.503Z,28
2017-02-16T08:55:49.107Z,28
2017-02-16T08:56:48.706Z,28
2017-02-16T08:57:48.110Z,28
2017-02-16T08:58:48.537Z,116
2017-02-16T08:59:48.395Z,152
2017-02-16T09:00:48.250Z,160
2017-02-16T09:01:48.148Z,160
2017-02-16T09:02:48.068Z,160
2017-02-16T09:03:48.375Z,160
2017-02-16T09:04:48.139Z,164
2017-02-16T09:05:47.886Z,160
2017-02-16T09:06:47.477Z,164
2017-02-16T09:07:47.688Z,164
2017-02-16T09:08:47.255Z,160
2017-02-16T09:09:47.173Z,160
2017-02-16T09:10:47.498Z,160
2017-02-16T09:11:46.689Z,160
2017-02-16T09:12:47.371Z,164
2017-02-16T09:13:47.314Z,160
2017-02-16T09:14:47.249Z,160
2017-02-16T09:15:47.491Z,160
2017-02-16T09:16:47.148Z,160
2017-02-16T09:17:47.059Z,160
2017-02-16T09:18:47.003Z,156
2017-02-16T09:19:47.134Z,160
2017-02-16T09:20:46.872Z,160
2017-02-16T09:21:46.823Z,160
2017-02-16T09:22:46.782Z,160
2017-02-16T09:23:46.296Z,160
2017-02-16T09:24:46.631Z,160
2017-02-16T09:25:46.564Z,156
2017-02-16T09:26:46.521Z,156
2017-02-16T09:27:46.055Z,156
2017-02-16T09:28:46.140Z,156
2017-02-16T09:29:45.936Z,160
2017-02-16T09:30:46.183Z,160
2017-02-16T09:31:45.809Z,156
2017-02-16T09:32:45.763Z,156
2017-02-16T09:33:46.085Z,156
2017-02-16T09:34:45.635Z,156
2017-02-16T09:35:46.271Z,156
2017-02-16T09:36:45.873Z,156
2017-02-16T09:37:45.455Z,156
2017-02-16T09:38:45.905Z,156
2017-02-16T09:39:45.719Z,156
2017-02-16T09:40:45.668Z,156
2017-02-16T09:41:45.814Z,156
2017-02-16T09:42:45.749Z,156
2017-02-16T09:43:45.769Z,156
2017-02-16T09:44:44.994Z,156
2017-02-16T09:45:45.319Z,156
2017-02-16T09:46:45.258Z,156
2017-02-16T09:47:45.247Z,156
2017-02-16T09:48:44.763Z,160
2017-02-16T09:49:45.084Z,156
2017-02-16T09:50:44.620Z,156
2017-02-16T09:51:44.985Z,156
2017-02-16T09:52:44.878Z,156
2017-02-16T09:53:44.818Z,156
2017-02-16T09:54:44.757Z,156
2017-02-16T09:55:44.708Z,156
2017-02-16T09:56:44.644Z,156
2017-02-16T09:57:44.580Z,156
2017-02-16T09:58:44.509Z,156
2017-02-16T09:59:44.450Z,156
2017-02-16T10:00:44.649Z,156
2017-02-16T10:01:44.317Z,156
2017-02-16T10:02:44.278Z,156
2017-02-16T10:03:44.240Z,152
2017-02-16T10:04:44.138Z,156
2017-02-16T10:05:44.405Z,156
2017-02-16T10:06:44.091Z,156
2017-02-16T10:07:44.200Z,156
2017-02-16T10:08:43.909Z,156
2017-02-16T10:09:43.881Z,156
2017-02-16T10:10:43.780Z,156
2017-02-16T10:11:43.714Z,156
2017-02-16T10:12:43.636Z,156
2017-02-16T10:13:43.597Z,152
2017-02-16T10:14:43.663Z,156
2017-02-16T10:15:43.455Z,156
2017-02-16T10:16:43.641Z,156
2017-02-16T10:17:43.331Z,156
2017-02-16T10:18:43.295Z,152
2017-02-16T10:19:43.215Z,156
2017-02-16T10:20:43.138Z,156
2017-02-16T10:21:43.107Z,156
2017-02-16T10:23:09.815Z,156
2017-02-16T10:23:42.568Z,156
2017-02-16T10:24:42.893Z,156
2017-02-16T10:25:42.855Z,156
2017-02-16T10:26:42.766Z,156
2017-02-16T10:27:42.711Z,156
2017-02-16T10:28:42.671Z,156
2017-02-16T10:29:42.610Z,156
2017-02-16T10:30:42.779Z,156
2017-02-16T10:31:42.459Z,156
2017-02-16T10:32:42.431Z,156
2017-02-16T10:33:42.590Z,156
2017-02-16T10:34:42.295Z,156
2017-02-16T10:35:42.224Z,152
2017-02-16T10:36:42.159Z,156
2017-02-16T10:37:41.710Z,152
2017-02-16T10:38:42.386Z,156
2017-02-16T10:39:41.591Z,152
2017-02-16T10:40:41.912Z,152
2017-02-16T10:41:41.865Z,156
2017-02-16T10:42:41.772Z,156
2017-02-16T10:43:41.720Z,156
2017-02-16T10:44:41.661Z,156
2017-02-16T10:45:41.851Z,156
2017-02-16T10:46:41.538Z,152
2017-02-16T10:47:41.468Z,156
2017-02-16T10:48:41.424Z,152
2017-02-16T10:49:41.354Z,156
2017-02-16T10:50:41.279Z,156
2017-02-16T10:51:41.231Z,156
2017-02-16T10:52:41.174Z,156
2017-02-16T10:53:41.095Z,156
2017-02-16T10:54:41.041Z,156
2017-02-16T10:55:40.985Z,156
2017-02-16T10:56:40.915Z,156
2017-02-16T10:57:40.873Z,156
2017-02-16T10:58:40.790Z,156
2017-02-16T10:59:40.338Z,156
2017-02-16T11:00:40.671Z,156
2017-02-16T11:01:40.607Z,156
2017-02-16T11:02:40.548Z,156
2017-02-16T11:03:40.493Z,152
2017-02-16T11:04:40.429Z,156
2017-02-16T11:05:39.985Z,156
2017-02-16T11:06:40.309Z,156
2017-02-16T11:07:40.261Z,152
2017-02-16T11:08:40.186Z,156
2017-02-16T11:09:40.133Z,156
2017-02-16T11:10:40.058Z,28
2017-02-16T11:11:40.007Z,28
2017-02-16T11:12:39.926Z,28
2017-02-16T11:13:39.859Z,32
2017-02-16T11:14:39.798Z,28
2017-02-16T11:15:40.055Z,28
2017-02-16T11:16:39.687Z,28
2017-02-16T11:17:39.609Z,28
2017-02-16T11:18:39.574Z,28
2017-02-16T11:19:39.504Z,28
2017-02-16T11:20:39.540Z,32
2017-02-16T11:21:39.376Z,28
2017-02-16T11:22:39.302Z,28
2017-02-16T11:23:38.860Z,28
2017-02-16T11:24:38.817Z,28
2017-02-16T11:25:39.122Z,28
2017-02-16T11:26:38.688Z,32
2017-02-16T11:27:38.996Z,28
2017-02-16T11:28:38.927Z,28
2017-02-16T11:29:39.023Z,32
2017-02-16T11:30:38.819Z,36
2017-02-16T11:31:38.745Z,28
2017-02-16T11:32:38.939Z,28
2017-02-16T11:33:38.615Z,24
2017-02-16T11:34:38.556Z,24
2017-02-16T11:35:38.522Z,24
2017-02-16T11:36:38.448Z,28
2017-02-16T11:37:38.369Z,28
2017-02-16T11:38:38.564Z,28
2017-02-16T11:39:38.244Z,28
2017-02-16T11:40:38.174Z,28
2017-02-16T11:41:38.113Z,28
2017-02-16T11:42:38.067Z,28
2017-02-16T11:43:38.005Z,28
2017-02-16T11:44:37.989Z,28
2017-02-16T11:45:38.116Z,28
2017-02-16T11:46:37.819Z,28
2017-02-16T11:47:37.753Z,28
2017-02-16T11:48:37.685Z,24
2017-02-16T11:49:37.632Z,28
2017-02-16T11:50:37.971Z,24
2017-02-16T11:51:37.607Z,24
2017-02-16T11:52:37.073Z,28
2017-02-16T11:53:37.369Z,28
2017-02-16T11:54:37.316Z,28
2017-02-16T11:55:37.976Z,28
2017-02-16T11:56:37.192Z,28
2017-02-16T11:57:37.128Z,28
2017-02-16T11:58:37.022Z,24
2017-02-16T11:59:37.006Z,28
2017-02-16T12:00:36.950Z,28
2017-02-16T12:01:36.884Z,28
2017-02-16T12:02:36.807Z,28
2017-02-16T12:03:36.780Z,28
2017-02-16T12:04:36.686Z,28
2017-02-16T12:05:36.972Z,32
2017-02-16T12:06:36.597Z,32
2017-02-16T12:07:36.553Z,28
2017-02-16T12:08:36.440Z,24
2017-02-16T12:09:36.373Z,20
2017-02-16T12:10:36.313Z,20
2017-02-16T12:11:36.497Z,24
2017-02-16T12:12:36.188Z,24
2017-02-16T12:13:36.130Z,24
2017-02-16T12:14:36.068Z,24
2017-02-16T12:15:35.993Z,28
2017-02-16T12:16:36.241Z,28
2017-02-16T12:17:35.873Z,24
2017-02-16T12:18:35.817Z,24
2017-02-16T12:19:35.765Z,28
2017-02-16T12:20:35.934Z,24
2017-02-16T12:21:36.085Z,28
2017-02-16T12:22:35.587Z,24
2017-02-16T12:23:35.520Z,24
2017-02-16T12:24:35.786Z,20
2017-02-16T12:25:35.380Z,24
2017-02-16T12:26:35.337Z,28
2017-02-16T12:27:35.259Z,24
2017-02-16T12:28:35.185Z,28
2017-02-16T12:29:35.146Z,28
2017-02-16T12:30:35.397Z,28
2017-02-16T12:31:35.038Z,28
2017-02-16T12:32:34.420Z,24
2017-02-16T12:33:34.906Z,24
2017-02-16T12:34:34.837Z,24
2017-02-16T12:35:34.767Z,24
2017-02-16T12:36:34.695Z,24
2017-02-16T12:37:34.658Z,28
2017-02-16T12:38:34.576Z,28
2017-02-16T12:39:34.506Z,24
2017-02-16T12:40:34.442Z,28
2017-02-16T12:41:34.371Z,28
2017-02-16T12:42:34.317Z,28
2017-02-16T12:43:34.282Z,28
2017-02-16T12:44:34.194Z,28
2017-02-16T12:45:34.442Z,24
2017-02-16T12:46:34.070Z,28
2017-02-16T12:47:34.008Z,28
2017-02-16T12:48:33.946Z,28
2017-02-16T12:49:33.884Z,28
2017-02-16T12:50:34.105Z,24
2017-02-16T12:51:33.766Z,24
2017-02-16T12:52:33.690Z,24
2017-02-16T12:53:33.906Z,24
2017-02-16T12:54:33.587Z,24
2017-02-16T12:55:33.966Z,24
2017-02-16T12:56:33.445Z,24
2017-02-16T12:57:33.382Z,24
2017-02-16T12:58:33.338Z,24
2017-02-16T12:59:33.257Z,24
2017-02-16T13:00:32.437Z,24
2017-02-16T13:01:33.130Z,24
2017-02-16T13:02:32.682Z,24
2017-02-16T13:03:33.029Z,24
2017-02-16T13:04:32.977Z,24
2017-02-16T13:05:32.900Z,24
2017-02-16T13:06:32.434Z,24
2017-02-16T13:07:32.755Z,24
2017-02-16T13:08:32.703Z,24
2017-02-16T13:09:32.643Z,24
2017-02-16T13:10:32.951Z,132
2017-02-16T13:11:32.527Z,152
2017-02-16T13:12:32.765Z,160
2017-02-16T13:13:32.387Z,160
2017-02-16T13:14:31.932Z,160
2017-02-16T13:15:32.508Z,160
2017-02-16T13:16:32.190Z,160
2017-02-16T13:17:32.157Z,156
2017-02-16T13:18:32.230Z,156
2017-02-16T13:19:32.023Z,156
2017-02-16T13:20:32.325Z,156
2017-02-16T13:21:31.506Z,160
2017-02-16T13:22:31.819Z,156
2017-02-16T13:23:31.385Z,156
2017-02-16T13:24:31.321Z,156
2017-02-16T13:25:31.646Z,156
2017-02-16T13:26:31.590Z,156
2017-02-16T13:27:31.510Z,156
2017-02-16T13:28:31.447Z,156
2017-02-16T13:29:31.383Z,156
2017-02-16T13:30:31.854Z,156
2017-02-16T13:31:31.270Z,152
2017-02-16T13:32:30.827Z,156
2017-02-16T13:33:31.162Z,156
2017-02-16T13:34:31.102Z,152
2017-02-16T13:35:30.878Z,152
2017-02-16T13:36:31.154Z,152
2017-02-16T13:37:30.542Z,152
2017-02-16T13:38:30.453Z,156
2017-02-16T13:39:30.396Z,156
2017-02-16T13:40:31.221Z,152
2017-02-16T13:41:30.664Z,152
2017-02-16T13:42:30.592Z,152
2017-02-16T13:43:30.151Z,156
2017-02-16T13:44:30.457Z,156
2017-02-16T13:45:30.032Z,156
2017-02-16T13:46:30.347Z,156
2017-02-16T13:47:30.275Z,152
2017-02-16T13:48:30.206Z,156
2017-02-16T13:49:30.288Z,152
2017-02-16T13:50:30.089Z,152
2017-02-16T13:51:30.058Z,152
2017-02-16T13:52:29.997Z,152
2017-02-16T13:53:29.539Z,152
2017-02-16T13:54:29.462Z,152
2017-02-16T13:55:30.255Z,152
2017-02-16T13:56:29.719Z,152
2017-02-16T13:57:29.667Z,152
2017-02-16T13:58:29.219Z,152
2017-02-16T13:59:29.547Z,152
2017-02-16T14:00:29.089Z,156
2017-02-16T14:01:29.417Z,152
2017-02-16T14:02:29.368Z,152
2017-02-16T14:03:29.285Z,148
2017-02-16T14:04:29.221Z,152
2017-02-16T14:05:29.456Z,152
2017-02-16T14:06:29.101Z,152
2017-02-16T14:07:29.197Z,152
2017-02-16T14:08:28.606Z,152
2017-02-16T14:09:28.905Z,152
2017-02-16T14:10:29.517Z,152
2017-02-16T14:11:28.796Z,152
2017-02-16T14:12:28.725Z,148
2017-02-16T14:13:28.697Z,152
2017-02-16T14:14:28.228Z,152
2017-02-16T14:15:28.841Z,24
2017-02-16T14:16:28.479Z,24
2017-02-16T14:17:28.435Z,24
2017-02-16T14:18:28.348Z,20
2017-02-16T14:19:28.288Z,16
2017-02-16T14:20:28.623Z,20
2017-02-16T14:21:28.169Z,16
2017-02-16T14:22:28.110Z,20
2017-02-16T14:23:27.664Z,16